Time;durP1;ratioP1;P1;durP2;ratioP2;P2;SDS_P1;SDS_P2;PMS_P1;PMS_P2;Temp;Humidity;BMP_temperature;BMP_pressure;BME280_temperature;BME280_humidity;BME280_pressure;Samples;Min_cycle;Max_cycle;Signal;HPM_P1;HPM_P2
2022/09/02 00:01:53;;;;;;;3.27;2.50;;;;;;;;;;5056842;28;20456;-73
2022/09/02 00:04:21;;;;;;;2.40;2.20;;;;;;;;;;5057158;28;20433;-73
2022/09/02 00:06:49;;;;;;;2.50;2.30;;;;;;;;;;5055497;28;20529;-72
2022/09/02 00:09:16;;;;;;;2.90;2.60;;;;;;;;;;5037531;28;20961;-72
2022/09/02 00:11:45;;;;;;;3.87;3.57;;;;;;;;;;5053744;28;20495;-73
2022/09/02 00:14:13;;;;;;;5.40;3.20;;;;;;;;;;5054057;28;20466;-73
2022/09/02 00:16:41;;;;;;;2.73;2.53;;;;;;;;;;5053648;28;20999;-73
2022/09/02 00:19:09;;;;;;;3.93;2.73;;;;;;;;;;5053670;28;20919;-73
2022/09/02 00:21:36;;;;;;;3.20;2.90;;;;;;;;;;5053586;28;20539;-73
2022/09/02 00:24:04;;;;;;;4.47;3.20;;;;;;;;;;5053657;28;20436;-73
2022/09/02 00:26:30;;;;;;;3.27;2.97;;;;;;;;;;5071740;28;20460;-73
2022/09/02 00:28:57;;;;;;;2.47;2.20;;;;;;;;;;5053509;28;20437;-72
2022/09/02 00:31:24;;;;;;;8.97;2.77;;;;;;;;;;5053660;28;20532;-73
2022/09/02 00:33:52;;;;;;;4.97;2.60;;;;;;;;;;5071846;28;20936;-73
2022/09/02 00:36:19;;;;;;;3.13;2.50;;;;;;;;;;5053359;28;20611;-73
2022/09/02 00:38:46;;;;;;;2.50;2.30;;;;;;;;;;5040197;28;20444;-73
2022/09/02 00:41:13;;;;;;;5.93;2.73;;;;;;;;;;5053610;28;20472;-73
2022/09/02 00:44:03;;;;;;;4.70;2.60;;;;;;;;;;5054001;28;20441;-73
2022/09/02 00:46:31;;;;;;;3.90;3.60;;;;;;;;;;5054995;28;20461;-72
2022/09/02 00:49:07;;;;;;;3.47;3.00;;;;;;;;;;5053170;28;20471;-72
2022/09/02 00:51:43;;;;;;;3.60;3.30;;;;;;;;;;5053239;28;20425;-72
2022/09/02 00:54:11;;;;;;;4.60;3.10;;;;;;;;;;5053213;28;20516;-72
2022/09/02 00:56:39;;;;;;;3.00;2.80;;;;;;;;;;5036573;28;20810;-72
2022/09/02 00:59:06;;;;;;;3.97;3.27;;;;;;;;;;5052970;28;20440;-72
2022/09/02 01:01:33;;;;;;;3.20;2.90;;;;;;;;;;5053059;28;20457;-72
2022/09/02 01:04:00;;;;;;;3.30;2.93;;;;;;;;;;5036760;28;20432;-72
2022/09/02 01:06:28;;;;;;;3.10;2.90;;;;;;;;;;5071024;28;20960;-72
2022/09/02 01:08:57;;;;;;;3.33;2.90;;;;;;;;;;5036577;28;20790;-72
2022/09/02 01:11:26;;;;;;;4.00;3.17;;;;;;;;;;5053129;28;20490;-73
2022/09/02 01:13:53;;;;;;;3.60;3.10;;;;;;;;;;5053295;28;20835;-73
2022/09/02 01:16:26;;;;;;;3.77;3.33;;;;;;;;;;5071076;28;20419;-72
2022/09/02 01:18:54;;;;;;;5.27;4.20;;;;;;;;;;5053219;28;20498;-73
2022/09/02 01:21:22;;;;;;;4.73;4.33;;;;;;;;;;5052961;28;20461;-72
2022/09/02 01:23:49;;;;;;;6.00;4.37;;;;;;;;;;5053549;28;20424;-72
2022/09/02 01:26:17;;;;;;;3.90;3.60;;;;;;;;;;5036701;28;20464;-72
2022/09/02 01:28:44;;;;;;;4.50;4.10;;;;;;;;;;5071491;28;20457;-72
2022/09/02 01:31:11;;;;;;;3.50;3.17;;;;;;;;;;5036851;28;21006;-72
2022/09/02 01:33:38;;;;;;;4.00;3.70;;;;;;;;;;5040482;28;20816;-72
2022/09/02 01:36:04;;;;;;;3.60;3.30;;;;;;;;;;5056662;28;20466;-71
2022/09/02 01:38:31;;;;;;;4.03;3.57;;;;;;;;;;5040273;28;20436;-72
2022/09/02 01:40:58;;;;;;;4.20;3.80;;;;;;;;;;5038586;28;20950;-72
2022/09/02 01:43:26;;;;;;;4.17;3.87;;;;;;;;;;5050163;28;20824;-72
2022/09/02 01:45:55;;;;;;;4.13;3.83;;;;;;;;;;5068795;28;20441;-71
2022/09/02 01:48:24;;;;;;;5.73;5.03;;;;;;;;;;5040297;28;20509;-72
2022/09/02 01:50:53;;;;;;;8.50;6.77;;;;;;;;;;5055140;28;20468;-72
2022/09/02 01:53:20;;;;;;;6.10;5.50;;;;;;;;;;5075263;28;20521;-72
2022/09/02 01:55:47;;;;;;;7.73;6.27;;;;;;;;;;5074559;28;20463;-71
2022/09/02 01:58:14;;;;;;;9.47;7.30;;;;;;;;;;5056354;28;20993;-72
2022/09/02 02:00:40;;;;;;;5.70;5.13;;;;;;;;;;5056588;28;20452;-72
2022/09/02 02:03:07;;;;;;;5.90;5.33;;;;;;;;;;5027508;28;20913;-72
2022/09/02 02:05:35;;;;;;;6.40;5.80;;;;;;;;;;5039193;28;20440;-72
2022/09/02 02:08:02;;;;;;;6.87;4.33;;;;;;;;;;5056382;28;20827;-72
2022/09/02 02:10:29;;;;;;;5.33;4.37;;;;;;;;;;5056108;28;20900;-72
2022/09/02 02:12:56;;;;;;;4.63;4.23;;;;;;;;;;5039909;28;20428;-72
2022/09/02 02:15:23;;;;;;;3.80;3.50;;;;;;;;;;5056175;28;20455;-71
2022/09/02 02:17:49;;;;;;;3.27;2.93;;;;;;;;;;5056165;28;20474;-73
2022/09/02 02:20:16;;;;;;;4.43;3.90;;;;;;;;;;5056079;28;20515;-72
2022/09/02 02:22:44;;;;;;;3.60;3.30;;;;;;;;;;5056308;28;20910;-72
2022/09/02 02:25:13;;;;;;;3.93;3.57;;;;;;;;;;5023345;28;20442;-72
2022/09/02 02:27:41;;;;;;;3.73;3.33;;;;;;;;;;5033427;28;20465;-72
2022/09/02 02:30:10;;;;;;;4.33;3.93;;;;;;;;;;5055568;28;20467;-72
2022/09/02 02:32:37;;;;;;;3.70;3.40;;;;;;;;;;5074139;28;20517;-72
2022/09/02 02:35:05;;;;;;;6.93;4.20;;;;;;;;;;5039455;28;20552;-72
2022/09/02 02:37:33;;;;;;;3.77;3.40;;;;;;;;;;5039378;28;21023;-71
2022/09/02 02:39:59;;;;;;;3.20;2.90;;;;;;;;;;5073741;28;20462;-71
2022/09/02 02:42:26;;;;;;;3.30;3.00;;;;;;;;;;5037319;28;20444;-71
2022/09/02 02:44:53;;;;;;;3.60;3.40;;;;;;;;;;5055206;28;20496;-72
2022/09/02 02:47:21;;;;;;;5.10;3.30;;;;;;;;;;5039302;28;20488;-72
2022/09/02 02:49:47;;;;;;;3.90;3.27;;;;;;;;;;5055347;28;20460;-72
2022/09/02 02:52:15;;;;;;;3.03;2.73;;;;;;;;;;5038985;28;20536;-71
2022/09/02 02:54:41;;;;;;;3.37;3.13;;;;;;;;;;5055241;28;20433;-71
2022/09/02 02:57:09;;;;;;;3.77;3.57;;;;;;;;;;5038867;28;20436;-72
2022/09/02 02:59:35;;;;;;;3.73;3.43;;;;;;;;;;5038457;28;20877;-71
2022/09/02 03:02:03;;;;;;;3.20;2.90;;;;;;;;;;5038763;28;20959;-71
2022/09/02 03:04:30;;;;;;;3.00;2.80;;;;;;;;;;5055186;28;20972;-71
2022/09/02 03:06:57;;;;;;;3.17;2.90;;;;;;;;;;5073184;28;20444;-71
2022/09/02 03:09:24;;;;;;;5.23;3.23;;;;;;;;;;5054906;28;20510;-71
2022/09/02 03:11:51;;;;;;;4.27;3.87;;;;;;;;;;5054798;28;20464;-71
2022/09/02 03:14:18;;;;;;;4.50;4.10;;;;;;;;;;5054787;28;20437;-71
2022/09/02 03:16:45;;;;;;;3.47;3.20;;;;;;;;;;5054889;28;20436;-71
2022/09/02 03:19:13;;;;;;;4.53;3.27;;;;;;;;;;5054649;28;20861;-71
2022/09/02 03:21:40;;;;;;;3.40;3.10;;;;;;;;;;5038368;28;20471;-72
2022/09/02 03:24:09;;;;;;;3.30;3.10;;;;;;;;;;5038228;28;20525;-72
2022/09/02 03:26:37;;;;;;;3.27;3.07;;;;;;;;;;5054492;28;20488;-71
2022/09/02 03:29:04;;;;;;;3.57;3.27;;;;;;;;;;5038360;28;20433;-72
2022/09/02 03:31:31;;;;;;;3.60;3.30;;;;;;;;;;5072733;28;20431;-72
2022/09/02 03:33:58;;;;;;;3.73;3.43;;;;;;;;;;5038381;28;20928;-71
2022/09/02 03:36:27;;;;;;;3.57;3.07;;;;;;;;;;5054550;28;20448;-72
2022/09/02 03:38:55;;;;;;;2.93;2.73;;;;;;;;;;5054762;28;20531;-72
2022/09/02 03:41:22;;;;;;;3.10;2.90;;;;;;;;;;5054541;28;20457;-72
2022/09/02 03:43:49;;;;;;;2.70;2.50;;;;;;;;;;5054511;28;20530;-72
2022/09/02 03:46:16;;;;;;;3.27;3.07;;;;;;;;;;5054272;28;20439;-71
2022/09/02 03:48:43;;;;;;;3.27;2.97;;;;;;;;;;5054505;28;20457;-72
2022/09/02 03:51:11;;;;;;;3.37;3.07;;;;;;;;;;5053969;28;20472;-71
2022/09/02 03:53:38;;;;;;;2.60;2.40;;;;;;;;;;5054363;28;20859;-72
2022/09/02 03:56:06;;;;;;;2.97;2.67;;;;;;;;;;5038120;28;20432;-72
2022/09/02 03:58:33;;;;;;;2.80;2.60;;;;;;;;;;5054297;28;20444;-72
2022/09/02 04:01:01;;;;;;;3.60;3.30;;;;;;;;;;5054038;28;20998;-72
2022/09/02 04:03:28;;;;;;;3.80;2.97;;;;;;;;;;5037499;28;20455;-71
2022/09/02 04:05:55;;;;;;;4.03;2.80;;;;;;;;;;5054192;28;20433;-72
2022/09/02 04:08:25;;;;;;;3.43;3.13;;;;;;;;;;5054434;28;20479;-72
2022/09/02 04:10:55;;;;;;;6.20;3.30;;;;;;;;;;5054015;28;20879;-71
2022/09/02 04:13:21;;;;;;;4.07;3.60;;;;;;;;;;5053980;28;20437;-72
2022/09/02 04:15:49;;;;;;;6.03;3.17;;;;;;;;;;5037364;28;20428;-72
2022/09/02 04:21:42;;;;;;;4.60;4.20;;;;;;;;;;5071460;28;20416;-71
2022/09/02 04:24:10;;;;;;;5.00;3.93;;;;;;;;;;5053641;28;20444;-71
2022/09/02 04:26:40;;;;;;;4.10;3.47;;;;;;;;;;5037244;28;20465;-71
2022/09/02 04:29:11;;;;;;;5.60;4.93;;;;;;;;;;5053383;28;20433;-71
2022/09/02 04:31:39;;;;;;;3.73;3.27;;;;;;;;;;5053725;28;20548;-72
2022/09/02 04:34:06;;;;;;;4.53;3.67;;;;;;;;;;5037112;28;20928;-71
2022/09/02 04:36:33;;;;;;;4.33;3.10;;;;;;;;;;5052981;28;20944;-72
2022/09/02 04:39:04;;;;;;;3.03;2.80;;;;;;;;;;5053262;28;20440;-72
2022/09/02 04:41:34;;;;;;;3.60;3.30;;;;;;;;;;5052962;28;20979;-72
2022/09/02 04:44:04;;;;;;;3.03;2.83;;;;;;;;;;5037405;28;20460;-72
2022/09/02 04:46:35;;;;;;;3.70;3.40;;;;;;;;;;5037019;28;20459;-72
2022/09/02 04:49:05;;;;;;;5.77;5.03;;;;;;;;;;5036993;28;20444;-72
2022/09/02 04:51:32;;;;;;;3.33;3.03;;;;;;;;;;5053255;28;20440;-72
2022/09/02 04:54:00;;;;;;;3.33;3.03;;;;;;;;;;5053202;28;20428;-71
2022/09/02 04:56:29;;;;;;;3.27;2.93;;;;;;;;;;5053035;28;20431;-71
2022/09/02 04:58:58;;;;;;;4.03;2.97;;;;;;;;;;5036946;28;20433;-72
2022/09/02 05:01:31;;;;;;;5.17;3.13;;;;;;;;;;5053290;28;20991;-72
2022/09/02 05:04:03;;;;;;;3.60;3.30;;;;;;;;;;5053263;28;20519;-72
2022/09/02 05:06:34;;;;;;;2.87;2.67;;;;;;;;;;5038060;28;20944;-72
2022/09/02 05:09:06;;;;;;;3.20;2.87;;;;;;;;;;5057101;28;20432;-72
2022/09/02 05:11:35;;;;;;;3.30;3.00;;;;;;;;;;5057202;28;20444;-72
2022/09/02 05:14:04;;;;;;;4.17;3.77;;;;;;;;;;5057126;28;20425;-72
2022/09/02 05:16:35;;;;;;;3.53;3.23;;;;;;;;;;5057365;28;20433;-71
2022/09/02 05:19:06;;;;;;;4.33;3.30;;;;;;;;;;5057122;28;20920;-72
2022/09/02 05:21:41;;;;;;;3.67;3.37;;;;;;;;;;5057257;28;20523;-72
2022/09/02 05:24:11;;;;;;;6.30;3.70;;;;;;;;;;5041091;28;20962;-73
2022/09/02 05:26:40;;;;;;;3.33;3.03;;;;;;;;;;5061098;28;20436;-72
2022/09/02 05:29:08;;;;;;;4.07;3.03;;;;;;;;;;5061878;28;20425;-72
2022/09/02 05:31:37;;;;;;;3.83;2.83;;;;;;;;;;5057800;28;20455;-72
2022/09/02 05:34:04;;;;;;;6.10;2.90;;;;;;;;;;5057042;28;20514;-72
2022/09/02 05:36:31;;;;;;;3.33;3.10;;;;;;;;;;5057077;28;20435;-71
2022/09/02 05:38:59;;;;;;;4.10;3.33;;;;;;;;;;5056588;28;20583;-71
2022/09/02 05:41:26;;;;;;;3.70;3.30;;;;;;;;;;5056924;28;20444;-72
2022/09/02 05:43:59;;;;;;;2.77;2.57;;;;;;;;;;5040742;28;20465;-71
2022/09/02 05:46:30;;;;;;;2.90;2.70;;;;;;;;;;5043194;28;20799;-71
2022/09/02 05:49:16;;;;;;;4.57;2.67;;;;;;;;;;5056176;28;20464;-71
2022/09/02 05:51:53;;;;;;;5.27;3.17;;;;;;;;;;5056514;28;20458;-71
2022/09/02 05:54:29;;;;;;;3.80;3.50;;;;;;;;;;5040599;28;21040;-72
2022/09/02 05:56:59;;;;;;;7.13;2.80;;;;;;;;;;5040248;28;20483;-71
2022/09/02 05:59:26;;;;;;;3.43;2.87;;;;;;;;;;5056399;28;21022;-72
2022/09/02 06:01:55;;;;;;;3.10;2.90;;;;;;;;;;5040299;28;21039;-72
2022/09/02 06:04:22;;;;;;;4.07;3.77;;;;;;;;;;5039681;28;20460;-72
2022/09/02 06:06:49;;;;;;;4.20;2.83;;;;;;;;;;5056168;28;20497;-73
2022/09/02 06:09:18;;;;;;;3.50;3.30;;;;;;;;;;5056240;28;20497;-71
2022/09/02 06:11:48;;;;;;;3.63;3.00;;;;;;;;;;5039471;28;20527;-72
2022/09/02 06:14:20;;;;;;;3.27;3.07;;;;;;;;;;5055994;28;20444;-72
2022/09/02 06:16:49;;;;;;;5.30;3.10;;;;;;;;;;5056074;28;20486;-72
2022/09/02 06:19:24;;;;;;;6.83;3.40;;;;;;;;;;5040383;28;20509;-71
2022/09/02 06:21:52;;;;;;;4.93;3.20;;;;;;;;;;5042704;28;20437;-71
2022/09/02 06:24:22;;;;;;;3.00;2.80;;;;;;;;;;5026912;28;20440;-71
2022/09/02 06:26:49;;;;;;;4.40;3.77;;;;;;;;;;5038994;28;20432;-72
2022/09/02 06:29:20;;;;;;;4.80;3.60;;;;;;;;;;5055782;28;20436;-71
2022/09/02 06:31:48;;;;;;;4.30;3.40;;;;;;;;;;5039432;28;20944;-72
2022/09/02 06:34:16;;;;;;;4.47;3.20;;;;;;;;;;5056337;28;20440;-72
2022/09/02 06:36:45;;;;;;;3.77;3.40;;;;;;;;;;5039205;28;20444;-72
2022/09/02 06:39:16;;;;;;;4.47;4.07;;;;;;;;;;5055880;28;20466;-72
2022/09/02 06:41:45;;;;;;;7.83;3.90;;;;;;;;;;5055501;28;20486;-72
2022/09/02 06:44:14;;;;;;;3.27;2.97;;;;;;;;;;5055675;28;20421;-72
2022/09/02 06:46:45;;;;;;;4.43;3.53;;;;;;;;;;5055588;28;20456;-73
2022/09/02 06:49:15;;;;;;;3.30;3.03;;;;;;;;;;5039009;28;20476;-72
2022/09/02 06:51:45;;;;;;;3.00;2.80;;;;;;;;;;5055751;28;20479;-72
2022/09/02 06:54:16;;;;;;;3.50;2.80;;;;;;;;;;5055153;28;20437;-73
2022/09/02 06:56:44;;;;;;;2.70;2.50;;;;;;;;;;5055069;28;20433;-72
2022/09/02 06:59:18;;;;;;;2.80;2.60;;;;;;;;;;5055027;28;20897;-73
2022/09/02 07:01:48;;;;;;;3.37;2.30;;;;;;;;;;5039167;28;20966;-72
2022/09/02 07:07:06;;;;;;;2.43;2.23;;;;;;;;;;5055011;28;20440;-72
2022/09/02 07:09:37;;;;;;;2.20;2.00;;;;;;;;;;5055127;28;20503;-71
2022/09/02 07:12:11;;;;;;;2.50;1.87;;;;;;;;;;5054640;28;20421;-72
2022/09/02 07:14:45;;;;;;;6.60;2.20;;;;;;;;;;5039502;28;20436;-72
2022/09/02 07:17:20;;;;;;;2.30;2.00;;;;;;;;;;5054945;28;20960;-72
2022/09/02 07:19:51;;;;;;;3.63;1.67;;;;;;;;;;5054852;28;20456;-73
2022/09/02 07:22:18;;;;;;;3.70;2.70;;;;;;;;;;5054759;28;20439;-73
2022/09/02 07:24:45;;;;;;;2.10;2.00;;;;;;;;;;5054458;28;20425;-73
2022/09/02 07:27:13;;;;;;;1.93;1.80;;;;;;;;;;5054523;28;20498;-73
2022/09/02 07:29:42;;;;;;;2.80;2.00;;;;;;;;;;5054001;28;20835;-73
2022/09/02 07:32:10;;;;;;;1.90;1.80;;;;;;;;;;5037959;28;20944;-73
2022/09/02 07:34:37;;;;;;;2.20;1.93;;;;;;;;;;5054761;28;20437;-73
2022/09/02 07:37:05;;;;;;;4.63;2.50;;;;;;;;;;5054533;28;20428;-73
2022/09/02 07:39:37;;;;;;;1.70;1.60;;;;;;;;;;5038623;28;20487;-73
2022/09/02 07:42:04;;;;;;;2.10;1.77;;;;;;;;;;5054852;28;20412;-74
2022/09/02 07:44:33;;;;;;;1.60;1.50;;;;;;;;;;5072056;28;20483;-74
2022/09/02 07:47:00;;;;;;;1.97;1.87;;;;;;;;;;5037588;28;20503;-73
2022/09/02 07:49:28;;;;;;;2.80;2.23;;;;;;;;;;5054126;28;20472;-73
2022/09/02 07:52:15;;;;;;;3.60;1.93;;;;;;;;;;5054419;28;20443;-73
2022/09/02 07:54:43;;;;;;;2.23;2.03;;;;;;;;;;5053766;28;20440;-73
2022/09/02 07:57:10;;;;;;;1.93;1.73;;;;;;;;;;5038091;28;20435;-72
2022/09/02 07:59:37;;;;;;;2.30;1.80;;;;;;;;;;5037797;28;21070;-73
2022/09/02 08:02:04;;;;;;;2.07;1.87;;;;;;;;;;5054440;28;20436;-73
2022/09/02 08:04:31;;;;;;;1.80;1.70;;;;;;;;;;5054001;28;20997;-73
2022/09/02 08:07:01;;;;;;;4.13;2.20;;;;;;;;;;5038136;28;20432;-73
2022/09/02 08:09:27;;;;;;;2.60;2.00;;;;;;;;;;5071450;28;20555;-73
2022/09/02 08:11:54;;;;;;;2.40;1.63;;;;;;;;;;5071768;28;20482;-73
2022/09/02 08:14:24;;;;;;;1.87;1.73;;;;;;;;;;5071661;28;20424;-73
2022/09/02 08:16:51;;;;;;;2.83;1.50;;;;;;;;;;5053278;28;20456;-73
2022/09/02 08:19:18;;;;;;;2.10;1.90;;;;;;;;;;5037061;28;20432;-73
2022/09/02 08:21:45;;;;;;;3.33;1.83;;;;;;;;;;5053670;28;20523;-73
2022/09/02 08:24:11;;;;;;;3.00;1.80;;;;;;;;;;5053526;28;20441;-73
2022/09/02 08:26:38;;;;;;;2.17;1.57;;;;;;;;;;5053319;28;20467;-73
2022/09/02 08:29:05;;;;;;;2.80;1.80;;;;;;;;;;5053286;28;20488;-73
2022/09/02 08:31:32;;;;;;;1.40;1.30;;;;;;;;;;5053504;28;20974;-73
2022/09/02 08:33:59;;;;;;;2.20;1.57;;;;;;;;;;5053397;28;20471;-74
2022/09/02 08:36:26;;;;;;;1.57;1.47;;;;;;;;;;5053630;28;20948;-74
2022/09/02 08:38:54;;;;;;;2.07;1.27;;;;;;;;;;5037115;28;20444;-73
2022/09/02 08:41:21;;;;;;;2.40;1.50;;;;;;;;;;5070597;28;20513;-73
2022/09/02 08:43:48;;;;;;;2.23;1.63;;;;;;;;;;5053297;28;20502;-72
2022/09/02 08:46:16;;;;;;;1.50;1.40;;;;;;;;;;5071263;28;20493;-74
2022/09/02 08:48:49;;;;;;;1.57;1.47;;;;;;;;;;5053412;28;20552;-73
2022/09/02 08:51:18;;;;;;;2.23;1.40;;;;;;;;;;5071332;28;20462;-73
2022/09/02 08:54:04;;;;;;;2.73;1.63;;;;;;;;;;5053251;28;20455;-73
2022/09/02 08:56:31;;;;;;;1.57;1.43;;;;;;;;;;5053185;28;20436;-73
2022/09/02 08:58:59;;;;;;;1.67;1.50;;;;;;;;;;5053552;28;20421;-73
2022/09/02 09:01:26;;;;;;;1.70;1.60;;;;;;;;;;5053361;28;20455;-74
2022/09/02 09:04:05;;;;;;;3.73;1.50;;;;;;;;;;5071234;28;20428;-74
2022/09/02 09:06:37;;;;;;;1.43;1.30;;;;;;;;;;5040948;28;21066;-74
2022/09/02 09:09:07;;;;;;;2.10;1.30;;;;;;;;;;5053139;28;20552;-73
2022/09/02 09:11:41;;;;;;;1.37;1.20;;;;;;;;;;5053283;28;20498;-73
2022/09/02 09:14:17;;;;;;;1.33;1.23;;;;;;;;;;5053405;28;20490;-74
2022/09/02 09:16:44;;;;;;;1.53;1.43;;;;;;;;;;5053182;28;20462;-73
2022/09/02 09:19:10;;;;;;;1.47;1.37;;;;;;;;;;5053018;28;20806;-73
2022/09/02 09:21:39;;;;;;;1.87;1.23;;;;;;;;;;5053024;28;20531;-73
2022/09/02 09:24:09;;;;;;;1.40;1.30;;;;;;;;;;5053095;28;20520;-73
2022/09/02 09:26:38;;;;;;;2.67;1.30;;;;;;;;;;5052913;28;20477;-73
2022/09/02 09:29:04;;;;;;;2.93;1.20;;;;;;;;;;5070912;28;20495;-73
2022/09/02 09:31:32;;;;;;;1.50;1.40;;;;;;;;;;5052926;28;20860;-73
2022/09/02 09:34:00;;;;;;;1.90;1.70;;;;;;;;;;5053013;28;20464;-73
2022/09/02 09:36:45;;;;;;;2.97;1.97;;;;;;;;;;5036294;28;20991;-73
2022/09/02 09:39:28;;;;;;;10.40;1.90;;;;;;;;;;5052748;28;20486;-74
2022/09/02 09:42:03;;;;;;;1.50;1.37;;;;;;;;;;5053374;28;20436;-74
2022/09/02 09:44:43;;;;;;;2.27;1.47;;;;;;;;;;5036339;28;20432;-73
2022/09/02 09:47:14;;;;;;;1.63;1.37;;;;;;;;;;5032882;28;20929;-73
2022/09/02 09:49:43;;;;;;;1.57;1.47;;;;;;;;;;5066935;28;20483;-73
2022/09/02 09:52:10;;;;;;;1.67;1.10;;;;;;;;;;5036634;28;20468;-73
2022/09/02 09:54:37;;;;;;;1.13;1.03;;;;;;;;;;5055538;28;20448;-73
2022/09/02 09:57:14;;;;;;;3.80;1.37;;;;;;;;;;5074511;28;20928;-74
2022/09/02 09:59:44;;;;;;;4.07;1.50;;;;;;;;;;5039889;28;20506;-74
2022/09/02 10:02:22;;;;;;;1.70;1.60;;;;;;;;;;5056317;28;20479;-72
2022/09/02 10:04:49;;;;;;;2.17;1.57;;;;;;;;;;5039932;28;20807;-73
2022/09/02 10:07:34;;;;;;;1.60;1.50;;;;;;;;;;5056366;28;20900;-73
2022/09/02 10:10:23;;;;;;;4.70;1.33;;;;;;;;;;5056409;28;20465;-73
2022/09/02 10:12:50;;;;;;;4.20;1.00;;;;;;;;;;5074116;28;20421;-72
2022/09/02 10:15:23;;;;;;;1.67;1.40;;;;;;;;;;5039622;28;20436;-73
2022/09/02 10:18:12;;;;;;;1.33;1.23;;;;;;;;;;5056129;28;20452;-72
2022/09/02 10:20:49;;;;;;;1.50;1.37;;;;;;;;;;5056178;28;20449;-74
2022/09/02 10:23:35;;;;;;;2.00;1.33;;;;;;;;;;5042684;28;20449;-73
2022/09/02 10:26:10;;;;;;;1.40;1.30;;;;;;;;;;5055922;28;20436;-74
2022/09/02 10:29:13;;;;;;;1.93;1.47;;;;;;;;;;5039337;28;20491;-74
2022/09/02 10:31:40;;;;;;;1.83;1.30;;;;;;;;;;5011895;28;20423;-74
2022/09/02 10:34:06;;;;;;;1.90;1.20;;;;;;;;;;5035853;28;20431;-74
2022/09/02 10:36:36;;;;;;;2.13;1.33;;;;;;;;;;5073836;28;20474;-74
2022/09/02 10:39:10;;;;;;;1.40;1.13;;;;;;;;;;5073619;28;20931;-74
2022/09/02 10:41:44;;;;;;;2.03;1.43;;;;;;;;;;5073848;28;20423;-73
2022/09/02 10:44:32;;;;;;;1.30;1.20;;;;;;;;;;5056655;28;20424;-74
2022/09/02 10:47:17;;;;;;;1.30;1.20;;;;;;;;;;5042638;28;20442;-74
2022/09/02 10:50:02;;;;;;;1.30;1.17;;;;;;;;;;5073403;28;20505;-74
2022/09/02 10:52:49;;;;;;;1.90;1.67;;;;;;;;;;5055601;28;20428;-74
2022/09/02 10:55:20;;;;;;;1.77;1.47;;;;;;;;;;4996193;28;20981;-74
2022/09/02 10:57:52;;;;;;;5.03;1.70;;;;;;;;;;5051006;28;20847;-74
2022/09/02 11:00:21;;;;;;;1.40;1.30;;;;;;;;;;5055300;28;20467;-73
2022/09/02 11:02:57;;;;;;;1.43;1.33;;;;;;;;;;5038863;28;20486;-74
2022/09/02 11:05:26;;;;;;;1.43;1.33;;;;;;;;;;5054213;28;20463;-74
2022/09/02 11:08:05;;;;;;;1.47;1.37;;;;;;;;;;5055313;28;20539;-74
2022/09/02 11:10:55;;;;;;;1.20;1.03;;;;;;;;;;5054957;28;20449;-74
2022/09/02 11:13:30;;;;;;;1.10;1.00;;;;;;;;;;5065104;28;20491;-74
2022/09/02 11:16:01;;;;;;;1.20;1.10;;;;;;;;;;5038650;28;20436;-73
2022/09/02 11:18:41;;;;;;;1.40;1.03;;;;;;;;;;5073211;28;20951;-73
2022/09/02 11:21:26;;;;;;;1.63;1.30;;;;;;;;;;5023983;28;20454;-73
2022/09/02 11:23:58;;;;;;;3.23;1.20;;;;;;;;;;5053127;28;20436;-75
2022/09/02 11:26:30;;;;;;;1.53;1.10;;;;;;;;;;5039471;28;21197;-73
2022/09/02 11:29:06;;;;;;;2.20;2.00;;;;;;;;;;5055259;28;20467;-73
2022/09/02 11:32:00;;;;;;;1.10;1.00;;;;;;;;;;5050388;28;20439;-74
2022/09/02 11:34:38;;;;;;;1.30;1.20;;;;;;;;;;5054988;28;20436;-73
2022/09/02 11:37:07;;;;;;;2.90;2.30;;;;;;;;;;5037443;28;20444;-73
2022/09/02 11:39:36;;;;;;;2.77;1.20;;;;;;;;;;5055179;28;20464;-73
2022/09/02 11:42:42;;;;;;;1.53;1.43;;;;;;;;;;5057917;28;20908;-75
2022/09/02 11:45:21;;;;;;;3.57;1.30;;;;;;;;;;5038005;28;20436;-74
2022/09/02 11:47:54;;;;;;;1.70;1.60;;;;;;;;;;5038134;28;20428;-74
2022/09/02 11:50:34;;;;;;;1.27;1.17;;;;;;;;;;5072578;28;20514;-75
2022/09/02 11:53:16;;;;;;;4.10;1.60;;;;;;;;;;5054922;28;20551;-74
2022/09/02 11:55:48;;;;;;;2.57;1.30;;;;;;;;;;5054338;28;20424;-73
2022/09/02 11:58:33;;;;;;;1.20;1.10;;;;;;;;;;5072004;28;20424;-73
2022/09/02 12:01:05;;;;;;;4.13;1.70;;;;;;;;;;5054044;28;20445;-73
2022/09/02 12:03:32;;;;;;;1.40;1.30;;;;;;;;;;5037761;28;20440;-74
2022/09/02 12:06:19;;;;;;;2.90;1.40;;;;;;;;;;5040431;28;20470;-74
2022/09/02 12:08:47;;;;;;;1.30;1.20;;;;;;;;;;5038322;28;20517;-75
2022/09/02 12:11:38;;;;;;;2.03;1.40;;;;;;;;;;5053982;28;20506;-75
2022/09/02 12:14:06;;;;;;;2.00;1.83;;;;;;;;;;5037544;28;20437;-73
2022/09/02 12:16:35;;;;;;;7.10;1.40;;;;;;;;;;5054050;28;20886;-73
2022/09/02 12:19:06;;;;;;;2.30;1.63;;;;;;;;;;5037395;28;20447;-74
2022/09/02 12:21:37;;;;;;;1.60;1.50;;;;;;;;;;5054301;28;20469;-74
2022/09/02 12:24:07;;;;;;;4.03;1.20;;;;;;;;;;5053841;28;20428;-74
2022/09/02 12:26:37;;;;;;;1.53;1.43;;;;;;;;;;5037415;28;20463;-74
2022/09/02 12:29:18;;;;;;;2.40;1.53;;;;;;;;;;5071987;28;20979;-74
2022/09/02 12:31:47;;;;;;;1.30;1.10;;;;;;;;;;5054111;28;20427;-74
2022/09/02 12:34:20;;;;;;;2.00;1.77;;;;;;;;;;5054311;28;20490;-74
2022/09/02 12:37:02;;;;;;;1.40;1.27;;;;;;;;;;5053472;28;20924;-74
2022/09/02 12:39:33;;;;;;;1.10;1.00;;;;;;;;;;5071933;28;20803;-74
2022/09/02 12:42:05;;;;;;;1.57;1.17;;;;;;;;;;5053550;28;20459;-74
2022/09/02 12:44:38;;;;;;;1.73;1.10;;;;;;;;;;5053935;28;20436;-75
2022/09/02 12:47:08;;;;;;;5.30;1.57;;;;;;;;;;5053647;28;20440;-75
2022/09/02 12:49:53;;;;;;;2.47;1.33;;;;;;;;;;5053803;28;20508;-75
2022/09/02 12:52:39;;;;;;;2.43;1.50;;;;;;;;;;5054137;28;20452;-74
2022/09/02 12:55:09;;;;;;;1.83;1.53;;;;;;;;;;5040861;28;20464;-74
2022/09/02 12:57:40;;;;;;;1.50;1.30;;;;;;;;;;5054049;28;20445;-73
2022/09/02 13:00:11;;;;;;;1.63;1.20;;;;;;;;;;5053794;28;20963;-73
2022/09/02 13:02:44;;;;;;;2.00;1.40;;;;;;;;;;5054090;28;20424;-74
2022/09/02 13:05:24;;;;;;;1.37;1.27;;;;;;;;;;5054051;28;20539;-73
2022/09/02 13:08:09;;;;;;;1.77;1.13;;;;;;;;;;5037467;28;20547;-75
2022/09/02 13:10:39;;;;;;;1.00;0.90;;;;;;;;;;5053394;28;20468;-75
2022/09/02 13:13:21;;;;;;;2.10;1.23;;;;;;;;;;5037576;28;20437;-74
2022/09/02 13:15:57;;;;;;;2.00;1.10;;;;;;;;;;5053715;28;20420;-74
2022/09/02 13:18:33;;;;;;;1.23;1.13;;;;;;;;;;5053687;28;20440;-75
2022/09/02 13:21:05;;;;;;;1.10;1.00;;;;;;;;;;5053866;28;20527;-75
2022/09/02 13:23:48;;;;;;;1.90;1.23;;;;;;;;;;5071526;28;20425;-74
2022/09/02 13:26:30;;;;;;;4.90;1.40;;;;;;;;;;5042130;28;20440;-74
2022/09/02 13:29:34;;;;;;;1.83;1.10;;;;;;;;;;5057306;28;20456;-74
2022/09/02 13:32:10;;;;;;;1.20;1.10;;;;;;;;;;5057134;28;20467;-73
2022/09/02 13:34:41;;;;;;;3.87;1.30;;;;;;;;;;5075102;28;20514;-75
2022/09/02 13:37:27;;;;;;;1.93;1.57;;;;;;;;;;5052141;28;20425;-75
2022/09/02 13:39:54;;;;;;;2.63;1.20;;;;;;;;;;5032445;28;20461;-74
2022/09/02 13:42:25;;;;;;;2.60;1.43;;;;;;;;;;5056799;28;20468;-75
2022/09/02 13:45:08;;;;;;;2.30;1.13;;;;;;;;;;5057900;28;20463;-75
2022/09/02 13:47:35;;;;;;;1.30;1.17;;;;;;;;;;5056679;28;20443;-75
2022/09/02 13:50:04;;;;;;;2.90;1.33;;;;;;;;;;5074252;28;20468;-75
2022/09/02 13:52:30;;;;;;;1.63;1.07;;;;;;;;;;5056498;28;20535;-74
2022/09/02 13:55:19;;;;;;;1.30;1.20;;;;;;;;;;5044650;28;20511;-75
2022/09/02 13:57:51;;;;;;;1.60;1.50;;;;;;;;;;5074320;28;20814;-73
2022/09/02 14:00:25;;;;;;;1.33;1.13;;;;;;;;;;5056327;28;20490;-73
2022/09/02 14:02:59;;;;;;;1.57;1.40;;;;;;;;;;5074373;28;20417;-75
2022/09/02 14:05:26;;;;;;;4.20;1.43;;;;;;;;;;5039809;28;20446;-74
2022/09/02 14:07:54;;;;;;;3.70;1.67;;;;;;;;;;5056081;28;20526;-74
2022/09/02 14:10:22;;;;;;;3.73;1.30;;;;;;;;;;5044093;28;20491;-75
2022/09/02 14:12:49;;;;;;;2.13;1.10;;;;;;;;;;5019822;28;20461;-75
2022/09/02 14:15:22;;;;;;;5.43;1.80;;;;;;;;;;5028705;28;20465;-75
2022/09/02 14:18:07;;;;;;;3.33;1.40;;;;;;;;;;5055936;28;20428;-75
2022/09/02 14:20:34;;;;;;;1.13;1.03;;;;;;;;;;5074118;28;20452;-74
2022/09/02 14:23:00;;;;;;;1.30;1.20;;;;;;;;;;5056194;28;20424;-74
2022/09/02 14:25:30;;;;;;;1.50;1.40;;;;;;;;;;5056510;28;20529;-74
2022/09/02 14:27:59;;;;;;;3.87;1.00;;;;;;;;;;5039869;28;20448;-74
2022/09/02 14:30:28;;;;;;;2.70;1.20;;;;;;;;;;5055803;28;20976;-74
2022/09/02 14:33:13;;;;;;;4.20;1.27;;;;;;;;;;5074014;28;20919;-74
2022/09/02 14:35:40;;;;;;;2.70;1.20;;;;;;;;;;5039170;28;20436;-74
2022/09/02 14:38:06;;;;;;;6.07;1.80;;;;;;;;;;5055549;28;20861;-75
2022/09/02 14:40:35;;;;;;;1.30;1.20;;;;;;;;;;5038836;28;20468;-76
2022/09/02 14:43:02;;;;;;;1.60;1.00;;;;;;;;;;5055722;28;20459;-74
2022/09/02 14:45:30;;;;;;;3.23;1.60;;;;;;;;;;5073363;28;20465;-73
2022/09/02 14:47:58;;;;;;;1.37;1.27;;;;;;;;;;5038943;28;20987;-74
2022/09/02 14:50:27;;;;;;;1.97;1.17;;;;;;;;;;5038553;28;20479;-74
2022/09/02 14:52:57;;;;;;;1.63;1.07;;;;;;;;;;5055171;28;20480;-74
2022/09/02 14:55:43;;;;;;;1.30;1.20;;;;;;;;;;5055572;28;20456;-74
2022/09/02 14:58:09;;;;;;;6.00;1.40;;;;;;;;;;5035353;28;20465;-76
2022/09/02 15:00:38;;;;;;;1.70;1.50;;;;;;;;;;5065003;28;20454;-76
2022/09/02 15:03:04;;;;;;;3.93;1.10;;;;;;;;;;5055015;28;20460;-74
2022/09/02 15:05:31;;;;;;;1.50;1.33;;;;;;;;;;5055308;28;20456;-75
2022/09/02 15:07:57;;;;;;;1.33;1.00;;;;;;;;;;5038553;28;20471;-76
2022/09/02 15:10:26;;;;;;;1.50;1.40;;;;;;;;;;5054973;28;20472;-74
2022/09/02 15:12:54;;;;;;;1.27;1.17;;;;;;;;;;5055232;28;20429;-76